West Panama City Beach, Florida
Current Conditions -  °F | °C
As of 5:53 AM on Monday 20 Oct 2014 (Local Time) from KECP Reporting Station
Clear Clear  
Wind Chill: 55°   Ceiling: Unl
Heat Index: 55°   Visibility: 9mi
Dew Point: 52°   Wind: 3mph
Humidity: 89%   Direction: 40°NE
Pressure: 30.03"   Gusts: NA
Location:  30.3525°N, 85.9093°W
Report Text: KECP 201053Z 04003KT 9SM CLR 13/11 A3003 RMK AO2 SLP180 T01280111
Loading
Personal Weather Stations






























Interactive Weather Map New forecast layout! Learn more

10-Day Weather Forecast

Advertisements
Track Severe Weather on mobile